sensor_id;sensor_type;location;lat;lon;timestamp;P1;durP1;ratioP1;P2;durP2;ratioP2
54599;SDS011;40500;51.084;16.958;2022-12-13T00:02:27;8.80;;;6.10;;
54599;SDS011;40500;51.084;16.958;2022-12-13T00:04:58;6.90;;;4.30;;
54599;SDS011;40500;51.084;16.958;2022-12-13T00:07:29;10.80;;;6.00;;
54599;SDS011;40500;51.084;16.958;2022-12-13T00:09:59;10.50;;;5.20;;
54599;SDS011;40500;51.084;16.958;2022-12-13T00:12:30;8.60;;;5.20;;
54599;SDS011;40500;51.084;16.958;2022-12-13T00:15:01;9.80;;;4.60;;
54599;SDS011;40500;51.084;16.958;2022-12-13T00:17:33;10.70;;;6.00;;
54599;SDS011;40500;51.084;16.958;2022-12-13T00:20:04;12.00;;;7.00;;
54599;SDS011;40500;51.084;16.958;2022-12-13T00:22:37;8.30;;;5.20;;
54599;SDS011;40500;51.084;16.958;2022-12-13T00:25:09;7.80;;;4.60;;
54599;SDS011;40500;51.084;16.958;2022-12-13T00:27:40;8.30;;;6.10;;
54599;SDS011;40500;51.084;16.958;2022-12-13T00:30:11;7.80;;;5.30;;
54599;SDS011;40500;51.084;16.958;2022-12-13T00:32:43;9.20;;;5.50;;
54599;SDS011;40500;51.084;16.958;2022-12-13T00:35:21;11.80;;;5.80;;
54599;SDS011;40500;51.084;16.958;2022-12-13T00:37:56;9.30;;;6.00;;
54599;SDS011;40500;51.084;16.958;2022-12-13T00:40:28;9.90;;;5.80;;
54599;SDS011;40500;51.084;16.958;2022-12-13T00:42:59;10.50;;;6.70;;
54599;SDS011;40500;51.084;16.958;2022-12-13T00:45:31;9.40;;;5.10;;
54599;SDS011;40500;51.084;16.958;2022-12-13T00:48:26;9.90;;;6.00;;
54599;SDS011;40500;51.084;16.958;2022-12-13T00:51:27;9.10;;;4.90;;
54599;SDS011;40500;51.084;16.958;2022-12-13T00:54:26;13.30;;;6.60;;
54599;SDS011;40500;51.084;16.958;2022-12-13T00:57:19;7.30;;;5.00;;
54599;SDS011;40500;51.084;16.958;2022-12-13T00:59:52;9.40;;;6.40;;
54599;SDS011;40500;51.084;16.958;2022-12-13T01:02:28;6.70;;;4.50;;
54599;SDS011;40500;51.084;16.958;2022-12-13T01:05:00;8.60;;;5.10;;
54599;SDS011;40500;51.084;16.958;2022-12-13T01:07:57;10.40;;;6.30;;
54599;SDS011;40500;51.084;16.958;2022-12-13T01:10:51;10.60;;;5.60;;
54599;SDS011;40500;51.084;16.958;2022-12-13T01:13:47;12.00;;;6.40;;
54599;SDS011;40500;51.084;16.958;2022-12-13T01:16:46;9.90;;;6.00;;
54599;SDS011;40500;51.084;16.958;2022-12-13T01:19:45;8.90;;;4.80;;
54599;SDS011;40500;51.084;16.958;2022-12-13T01:22:42;9.90;;;5.90;;
54599;SDS011;40500;51.084;16.958;2022-12-13T01:25:35;13.00;;;6.00;;
54599;SDS011;40500;51.084;16.958;2022-12-13T01:28:16;8.80;;;5.60;;
54599;SDS011;40500;51.084;16.958;2022-12-13T01:30:55;8.50;;;5.10;;
54599;SDS011;40500;51.084;16.958;2022-12-13T01:33:49;6.90;;;3.90;;
54599;SDS011;40500;51.084;16.958;2022-12-13T01:36:24;11.60;;;5.80;;
54599;SDS011;40500;51.084;16.958;2022-12-13T01:39:19;9.60;;;5.50;;
54599;SDS011;40500;51.084;16.958;2022-12-13T01:41:54;7.90;;;5.10;;
54599;SDS011;40500;51.084;16.958;2022-12-13T01:44:55;10.90;;;5.50;;
54599;SDS011;40500;51.084;16.958;2022-12-13T01:47:38;5.40;;;3.20;;
54599;SDS011;40500;51.084;16.958;2022-12-13T01:50:21;8.90;;;5.10;;
54599;SDS011;40500;51.084;16.958;2022-12-13T01:55:52;7.40;;;4.60;;
54599;SDS011;40500;51.084;16.958;2022-12-13T01:58:53;9.80;;;6.00;;
54599;SDS011;40500;51.084;16.958;2022-12-13T02:04:27;9.70;;;5.20;;
54599;SDS011;40500;51.084;16.958;2022-12-13T02:07:34;9.40;;;4.90;;
54599;SDS011;40500;51.084;16.958;2022-12-13T02:10:29;8.90;;;4.40;;
54599;SDS011;40500;51.084;16.958;2022-12-13T02:13:39;7.60;;;4.80;;
54599;SDS011;40500;51.084;16.958;2022-12-13T02:16:43;9.00;;;5.30;;
54599;SDS011;40500;51.084;16.958;2022-12-13T02:23:03;10.80;;;5.20;;
54599;SDS011;40500;51.084;16.958;2022-12-13T02:26:28;8.90;;;4.50;;
54599;SDS011;40500;51.084;16.958;2022-12-13T02:29:42;7.50;;;4.30;;
54599;SDS011;40500;51.084;16.958;2022-12-13T02:33:13;6.70;;;4.20;;
54599;SDS011;40500;51.084;16.958;2022-12-13T02:39:30;11.60;;;5.10;;
54599;SDS011;40500;51.084;16.958;2022-12-13T02:42:09;6.40;;;4.20;;
54599;SDS011;40500;51.084;16.958;2022-12-13T02:44:50;9.80;;;5.30;;
54599;SDS011;40500;51.084;16.958;2022-12-13T02:47:58;8.40;;;4.10;;
54599;SDS011;40500;51.084;16.958;2022-12-13T02:50:38;8.90;;;4.40;;
54599;SDS011;40500;51.084;16.958;2022-12-13T02:53:36;8.90;;;5.00;;
54599;SDS011;40500;51.084;16.958;2022-12-13T02:56:39;6.50;;;3.60;;
54599;SDS011;40500;51.084;16.958;2022-12-13T02:59:52;8.30;;;4.60;;
54599;SDS011;40500;51.084;16.958;2022-12-13T03:03:05;8.50;;;4.10;;
54599;SDS011;40500;51.084;16.958;2022-12-13T03:06:00;7.50;;;4.30;;
54599;SDS011;40500;51.084;16.958;2022-12-13T03:09:35;7.70;;;5.00;;
54599;SDS011;40500;51.084;16.958;2022-12-13T03:15:37;7.30;;;4.40;;
54599;SDS011;40500;51.084;16.958;2022-12-13T03:18:47;5.40;;;3.50;;
54599;SDS011;40500;51.084;16.958;2022-12-13T03:21:43;7.70;;;4.30;;
54599;SDS011;40500;51.084;16.958;2022-12-13T03:24:54;5.10;;;3.30;;
54599;SDS011;40500;51.084;16.958;2022-12-13T03:28:20;5.00;;;3.40;;
54599;SDS011;40500;51.084;16.958;2022-12-13T03:31:21;9.00;;;4.70;;
54599;SDS011;40500;51.084;16.958;2022-12-13T03:34:26;7.90;;;4.50;;
54599;SDS011;40500;51.084;16.958;2022-12-13T03:37:31;6.50;;;4.10;;
54599;SDS011;40500;51.084;16.958;2022-12-13T03:40:25;6.20;;;4.10;;
54599;SDS011;40500;51.084;16.958;2022-12-13T03:43:00;8.30;;;4.70;;
54599;SDS011;40500;51.084;16.958;2022-12-13T03:45:56;6.00;;;3.50;;
54599;SDS011;40500;51.084;16.958;2022-12-13T03:48:39;7.30;;;4.40;;
54599;SDS011;40500;51.084;16.958;2022-12-13T03:51:36;7.60;;;4.20;;
54599;SDS011;40500;51.084;16.958;2022-12-13T03:54:32;5.20;;;3.20;;
54599;SDS011;40500;51.084;16.958;2022-12-13T03:57:25;7.50;;;4.30;;
54599;SDS011;40500;51.084;16.958;2022-12-13T04:00:04;8.30;;;4.10;;
54599;SDS011;40500;51.084;16.958;2022-12-13T04:02:43;10.20;;;4.20;;
54599;SDS011;40500;51.084;16.958;2022-12-13T04:05:39;5.80;;;3.70;;
54599;SDS011;40500;51.084;16.958;2022-12-13T04:08:37;6.40;;;4.20;;
54599;SDS011;40500;51.084;16.958;2022-12-13T04:11:39;6.70;;;4.00;;
54599;SDS011;40500;51.084;16.958;2022-12-13T04:17:44;11.40;;;4.70;;
54599;SDS011;40500;51.084;16.958;2022-12-13T04:20:40;8.70;;;4.70;;
54599;SDS011;40500;51.084;16.958;2022-12-13T04:23:44;8.70;;;4.80;;
54599;SDS011;40500;51.084;16.958;2022-12-13T04:26:21;9.10;;;4.40;;
54599;SDS011;40500;51.084;16.958;2022-12-13T04:29:16;6.40;;;4.30;;
54599;SDS011;40500;51.084;16.958;2022-12-13T04:32:13;9.40;;;4.40;;
54599;SDS011;40500;51.084;16.958;2022-12-13T04:35:14;6.50;;;4.00;;
54599;SDS011;40500;51.084;16.958;2022-12-13T04:38:19;9.10;;;4.40;;
54599;SDS011;40500;51.084;16.958;2022-12-13T04:41:14;7.00;;;4.80;;
54599;SDS011;40500;51.084;16.958;2022-12-13T04:44:22;9.00;;;4.70;;
54599;SDS011;40500;51.084;16.958;2022-12-13T04:47:26;6.40;;;4.60;;
54599;SDS011;40500;51.084;16.958;2022-12-13T04:50:10;8.00;;;5.20;;
54599;SDS011;40500;51.084;16.958;2022-12-13T04:53:06;6.80;;;4.60;;
54599;SDS011;40500;51.084;16.958;2022-12-13T04:56:06;8.80;;;5.40;;
54599;SDS011;40500;51.084;16.958;2022-12-13T04:59:07;10.90;;;5.90;;
54599;SDS011;40500;51.084;16.958;2022-12-13T05:01:43;8.00;;;4.90;;
54599;SDS011;40500;51.084;16.958;2022-12-13T05:04:40;9.90;;;5.40;;
54599;SDS011;40500;51.084;16.958;2022-12-13T05:07:51;10.50;;;6.20;;
54599;SDS011;40500;51.084;16.958;2022-12-13T05:10:27;8.50;;;4.80;;
54599;SDS011;40500;51.084;16.958;2022-12-13T05:13:29;12.90;;;7.50;;
54599;SDS011;40500;51.084;16.958;2022-12-13T05:16:23;11.90;;;5.70;;
54599;SDS011;40500;51.084;16.958;2022-12-13T05:18:58;10.40;;;6.60;;
54599;SDS011;40500;51.084;16.958;2022-12-13T05:21:53;11.30;;;6.40;;
54599;SDS011;40500;51.084;16.958;2022-12-13T05:24:51;12.30;;;6.80;;
54599;SDS011;40500;51.084;16.958;2022-12-13T05:27:48;14.50;;;6.80;;
54599;SDS011;40500;51.084;16.958;2022-12-13T05:30:49;14.00;;;6.70;;
54599;SDS011;40500;51.084;16.958;2022-12-13T05:33:47;10.60;;;6.30;;
54599;SDS011;40500;51.084;16.958;2022-12-13T05:36:20;11.80;;;6.10;;
54599;SDS011;40500;51.084;16.958;2022-12-13T05:39:16;11.90;;;6.80;;
54599;SDS011;40500;51.084;16.958;2022-12-13T05:42:16;11.90;;;6.90;;
54599;SDS011;40500;51.084;16.958;2022-12-13T05:45:11;10.00;;;5.80;;
54599;SDS011;40500;51.084;16.958;2022-12-13T05:48:11;14.00;;;7.40;;
54599;SDS011;40500;51.084;16.958;2022-12-13T05:51:13;11.80;;;5.90;;
54599;SDS011;40500;51.084;16.958;2022-12-13T05:54:12;13.50;;;7.20;;
54599;SDS011;40500;51.084;16.958;2022-12-13T05:57:13;15.30;;;7.40;;
54599;SDS011;40500;51.084;16.958;2022-12-13T06:00:18;14.30;;;7.30;;
54599;SDS011;40500;51.084;16.958;2022-12-13T06:03:17;13.90;;;6.80;;
54599;SDS011;40500;51.084;16.958;2022-12-13T06:06:14;16.90;;;8.40;;
54599;SDS011;40500;51.084;16.958;2022-12-13T06:09:14;16.80;;;7.60;;
54599;SDS011;40500;51.084;16.958;2022-12-13T06:11:51;13.60;;;7.00;;
54599;SDS011;40500;51.084;16.958;2022-12-13T06:17:18;10.60;;;6.40;;
54599;SDS011;40500;51.084;16.958;2022-12-13T06:20:12;8.20;;;5.20;;
54599;SDS011;40500;51.084;16.958;2022-12-13T06:22:51;12.10;;;6.40;;
54599;SDS011;40500;51.084;16.958;2022-12-13T06:25:43;10.80;;;6.00;;
54599;SDS011;40500;51.084;16.958;2022-12-13T06:28:18;10.90;;;6.20;;
54599;SDS011;40500;51.084;16.958;2022-12-13T06:31:23;13.60;;;7.70;;
54599;SDS011;40500;51.084;16.958;2022-12-13T06:33:55;12.40;;;6.80;;
54599;SDS011;40500;51.084;16.958;2022-12-13T06:36:42;10.80;;;5.00;;
54599;SDS011;40500;51.084;16.958;2022-12-13T06:39:13;7.90;;;5.00;;
54599;SDS011;40500;51.084;16.958;2022-12-13T06:41:44;10.10;;;5.30;;
54599;SDS011;40500;51.084;16.958;2022-12-13T06:44:15;10.30;;;6.70;;
54599;SDS011;40500;51.084;16.958;2022-12-13T06:46:45;11.40;;;4.80;;
54599;SDS011;40500;51.084;16.958;2022-12-13T06:49:15;13.40;;;7.10;;
54599;SDS011;40500;51.084;16.958;2022-12-13T06:51:48;13.30;;;6.70;;
54599;SDS011;40500;51.084;16.958;2022-12-13T06:54:20;11.60;;;6.30;;
54599;SDS011;40500;51.084;16.958;2022-12-13T06:56:58;12.20;;;6.30;;
54599;SDS011;40500;51.084;16.958;2022-12-13T06:59:29;14.10;;;6.10;;
54599;SDS011;40500;51.084;16.958;2022-12-13T07:02:00;13.90;;;7.60;;
54599;SDS011;40500;51.084;16.958;2022-12-13T07:04:32;13.70;;;7.00;;
54599;SDS011;40500;51.084;16.958;2022-12-13T07:07:05;12.30;;;7.80;;
54599;SDS011;40500;51.084;16.958;2022-12-13T07:09:35;14.70;;;7.20;;
54599;SDS011;40500;51.084;16.958;2022-12-13T07:12:06;18.50;;;10.40;;
54599;SDS011;40500;51.084;16.958;2022-12-13T07:14:37;18.30;;;9.00;;
54599;SDS011;40500;51.084;16.958;2022-12-13T07:17:08;18.60;;;8.40;;
54599;SDS011;40500;51.084;16.958;2022-12-13T07:20:00;16.30;;;7.80;;
54599;SDS011;40500;51.084;16.958;2022-12-13T07:22:37;14.20;;;8.00;;
54599;SDS011;40500;51.084;16.958;2022-12-13T07:27:55;15.00;;;8.20;;
54599;SDS011;40500;51.084;16.958;2022-12-13T07:30:30;13.50;;;7.60;;
54599;SDS011;40500;51.084;16.958;2022-12-13T07:33:08;16.50;;;8.60;;
54599;SDS011;40500;51.084;16.958;2022-12-13T07:35:39;15.50;;;8.40;;
54599;SDS011;40500;51.084;16.958;2022-12-13T07:38:10;19.10;;;9.20;;
54599;SDS011;40500;51.084;16.958;2022-12-13T07:40:40;15.10;;;8.40;;
54599;SDS011;40500;51.084;16.958;2022-12-13T07:43:11;13.90;;;7.70;;
54599;SDS011;40500;51.084;16.958;2022-12-13T07:45:42;18.00;;;9.40;;
54599;SDS011;40500;51.084;16.958;2022-12-13T07:48:14;11.90;;;6.70;;
54599;SDS011;40500;51.084;16.958;2022-12-13T07:50:47;14.60;;;8.20;;
54599;SDS011;40500;51.084;16.958;2022-12-13T07:53:21;16.20;;;9.30;;
54599;SDS011;40500;51.084;16.958;2022-12-13T07:55:53;20.30;;;10.40;;
54599;SDS011;40500;51.084;16.958;2022-12-13T07:58:51;17.60;;;9.90;;
54599;SDS011;40500;51.084;16.958;2022-12-13T08:01:23;21.80;;;10.10;;
54599;SDS011;40500;51.084;16.958;2022-12-13T08:03:54;21.00;;;9.30;;
54599;SDS011;40500;51.084;16.958;2022-12-13T08:06:25;17.00;;;8.90;;
54599;SDS011;40500;51.084;16.958;2022-12-13T08:08:59;16.60;;;8.80;;
54599;SDS011;40500;51.084;16.958;2022-12-13T08:11:31;17.20;;;8.90;;
54599;SDS011;40500;51.084;16.958;2022-12-13T08:14:03;22.00;;;9.80;;
54599;SDS011;40500;51.084;16.958;2022-12-13T08:17:04;15.20;;;7.90;;
54599;SDS011;40500;51.084;16.958;2022-12-13T08:19:35;12.40;;;7.30;;
54599;SDS011;40500;51.084;16.958;2022-12-13T08:22:13;15.90;;;7.70;;
54599;SDS011;40500;51.084;16.958;2022-12-13T08:24:51;15.60;;;7.70;;
54599;SDS011;40500;51.084;16.958;2022-12-13T08:27:21;16.20;;;8.50;;
54599;SDS011;40500;51.084;16.958;2022-12-13T08:30:03;19.50;;;9.70;;
54599;SDS011;40500;51.084;16.958;2022-12-13T08:32:36;14.70;;;7.90;;
54599;SDS011;40500;51.084;16.958;2022-12-13T08:35:09;14.80;;;7.90;;
54599;SDS011;40500;51.084;16.958;2022-12-13T08:37:40;11.20;;;6.40;;
54599;SDS011;40500;51.084;16.958;2022-12-13T08:40:11;12.80;;;6.60;;
54599;SDS011;40500;51.084;16.958;2022-12-13T08:43:02;10.50;;;6.10;;
54599;SDS011;40500;51.084;16.958;2022-12-13T08:45:34;8.50;;;5.40;;
54599;SDS011;40500;51.084;16.958;2022-12-13T08:48:25;13.50;;;6.60;;
54599;SDS011;40500;51.084;16.958;2022-12-13T08:50:59;9.70;;;6.10;;
54599;SDS011;40500;51.084;16.958;2022-12-13T08:53:31;8.90;;;5.10;;
54599;SDS011;40500;51.084;16.958;2022-12-13T08:56:09;10.60;;;5.80;;
54599;SDS011;40500;51.084;16.958;2022-12-13T08:58:42;12.70;;;6.20;;
54599;SDS011;40500;51.084;16.958;2022-12-13T09:01:16;13.60;;;7.00;;
54599;SDS011;40500;51.084;16.958;2022-12-13T09:03:50;10.10;;;5.60;;
54599;SDS011;40500;51.084;16.958;2022-12-13T09:06:25;11.90;;;6.20;;
54599;SDS011;40500;51.084;16.958;2022-12-13T09:08:57;12.70;;;6.10;;
54599;SDS011;40500;51.084;16.958;2022-12-13T09:11:30;10.70;;;6.20;;
54599;SDS011;40500;51.084;16.958;2022-12-13T09:14:09;9.70;;;5.30;;
54599;SDS011;40500;51.084;16.958;2022-12-13T09:16:41;11.20;;;5.60;;
54599;SDS011;40500;51.084;16.958;2022-12-13T09:21:53;7.20;;;4.00;;
54599;SDS011;40500;51.084;16.958;2022-12-13T09:24:29;10.40;;;5.50;;
54599;SDS011;40500;51.084;16.958;2022-12-13T09:27:04;9.90;;;5.40;;
54599;SDS011;40500;51.084;16.958;2022-12-13T09:29:37;6.00;;;3.70;;
54599;SDS011;40500;51.084;16.958;2022-12-13T09:32:08;8.70;;;4.20;;
54599;SDS011;40500;51.084;16.958;2022-12-13T09:34:38;11.30;;;5.60;;
54599;SDS011;40500;51.084;16.958;2022-12-13T09:37:12;11.50;;;6.20;;
54599;SDS011;40500;51.084;16.958;2022-12-13T09:39:50;9.30;;;5.30;;
54599;SDS011;40500;51.084;16.958;2022-12-13T09:42:22;6.10;;;3.90;;
54599;SDS011;40500;51.084;16.958;2022-12-13T09:44:58;9.70;;;5.30;;
54599;SDS011;40500;51.084;16.958;2022-12-13T09:47:49;10.80;;;6.10;;
54599;SDS011;40500;51.084;16.958;2022-12-13T09:50:30;11.00;;;5.90;;
54599;SDS011;40500;51.084;16.958;2022-12-13T09:53:06;11.30;;;5.30;;
54599;SDS011;40500;51.084;16.958;2022-12-13T09:55:49;12.20;;;4.40;;
54599;SDS011;40500;51.084;16.958;2022-12-13T09:58:37;8.50;;;5.30;;
54599;SDS011;40500;51.084;16.958;2022-12-13T10:01:10;10.00;;;5.60;;
54599;SDS011;40500;51.084;16.958;2022-12-13T10:03:50;11.80;;;5.40;;
54599;SDS011;40500;51.084;16.958;2022-12-13T10:06:24;12.30;;;5.10;;
54599;SDS011;40500;51.084;16.958;2022-12-13T10:08:59;9.40;;;4.00;;
54599;SDS011;40500;51.084;16.958;2022-12-13T10:11:30;9.50;;;5.10;;
54599;SDS011;40500;51.084;16.958;2022-12-13T10:14:03;9.70;;;4.70;;
54599;SDS011;40500;51.084;16.958;2022-12-13T10:16:39;9.10;;;5.90;;
54599;SDS011;40500;51.084;16.958;2022-12-13T10:19:15;8.00;;;4.90;;
54599;SDS011;40500;51.084;16.958;2022-12-13T10:21:56;7.50;;;4.50;;
54599;SDS011;40500;51.084;16.958;2022-12-13T10:24:30;10.80;;;5.70;;
54599;SDS011;40500;51.084;16.958;2022-12-13T10:27:18;7.30;;;4.00;;
54599;SDS011;40500;51.084;16.958;2022-12-13T10:29:59;9.60;;;4.80;;
54599;SDS011;40500;51.084;16.958;2022-12-13T10:32:51;10.80;;;4.70;;
54599;SDS011;40500;51.084;16.958;2022-12-13T10:35:27;9.10;;;5.30;;
54599;SDS011;40500;51.084;16.958;2022-12-13T10:38:01;10.00;;;5.90;;
54599;SDS011;40500;51.084;16.958;2022-12-13T10:40:48;8.40;;;5.00;;
54599;SDS011;40500;51.084;16.958;2022-12-13T10:43:21;9.20;;;5.20;;
54599;SDS011;40500;51.084;16.958;2022-12-13T10:45:57;8.90;;;5.20;;
54599;SDS011;40500;51.084;16.958;2022-12-13T10:48:35;7.70;;;5.30;;
54599;SDS011;40500;51.084;16.958;2022-12-13T10:51:16;7.10;;;5.10;;
54599;SDS011;40500;51.084;16.958;2022-12-13T10:53:52;4.70;;;3.80;;
54599;SDS011;40500;51.084;16.958;2022-12-13T10:56:31;7.80;;;4.80;;
54599;SDS011;40500;51.084;16.958;2022-12-13T10:59:17;7.50;;;4.80;;
54599;SDS011;40500;51.084;16.958;2022-12-13T11:04:25;7.80;;;4.10;;
54599;SDS011;40500;51.084;16.958;2022-12-13T11:06:58;7.70;;;4.90;;
54599;SDS011;40500;51.084;16.958;2022-12-13T11:09:48;10.10;;;6.00;;
54599;SDS011;40500;51.084;16.958;2022-12-13T11:12:21;9.50;;;5.20;;
54599;SDS011;40500;51.084;16.958;2022-12-13T11:14:54;12.60;;;6.10;;
54599;SDS011;40500;51.084;16.958;2022-12-13T11:17:28;8.10;;;5.30;;
54599;SDS011;40500;51.084;16.958;2022-12-13T11:20:05;7.90;;;4.30;;
54599;SDS011;40500;51.084;16.958;2022-12-13T11:22:45;7.70;;;4.30;;
54599;SDS011;40500;51.084;16.958;2022-12-13T11:25:21;9.00;;;5.50;;
54599;SDS011;40500;51.084;16.958;2022-12-13T11:27:57;14.80;;;6.80;;
54599;SDS011;40500;51.084;16.958;2022-12-13T11:30:57;10.90;;;5.90;;
54599;SDS011;40500;51.084;16.958;2022-12-13T11:33:41;8.90;;;4.70;;
54599;SDS011;40500;51.084;16.958;2022-12-13T11:36:25;12.50;;;6.10;;
54599;SDS011;40500;51.084;16.958;2022-12-13T11:39:12;10.30;;;6.00;;
54599;SDS011;40500;51.084;16.958;2022-12-13T11:41:50;8.90;;;5.30;;
54599;SDS011;40500;51.084;16.958;2022-12-13T11:44:28;8.00;;;4.80;;
54599;SDS011;40500;51.084;16.958;2022-12-13T11:47:17;6.10;;;4.30;;
54599;SDS011;40500;51.084;16.958;2022-12-13T11:49:54;7.30;;;4.90;;
54599;SDS011;40500;51.084;16.958;2022-12-13T11:52:33;7.60;;;4.70;;
54599;SDS011;40500;51.084;16.958;2022-12-13T11:55:10;9.90;;;5.30;;
54599;SDS011;40500;51.084;16.958;2022-12-13T11:57:51;10.30;;;5.40;;
54599;SDS011;40500;51.084;16.958;2022-12-13T12:00:29;8.60;;;5.20;;
54599;SDS011;40500;51.084;16.958;2022-12-13T12:03:12;10.20;;;5.50;;
54599;SDS011;40500;51.084;16.958;2022-12-13T12:06:15;7.60;;;4.40;;
54599;SDS011;40500;51.084;16.958;2022-12-13T12:08:52;7.40;;;4.10;;
54599;SDS011;40500;51.084;16.958;2022-12-13T12:11:28;6.80;;;3.90;;
54599;SDS011;40500;51.084;16.958;2022-12-13T12:14:04;9.30;;;5.30;;
54599;SDS011;40500;51.084;16.958;2022-12-13T12:16:45;6.90;;;4.40;;
54599;SDS011;40500;51.084;16.958;2022-12-13T12:19:21;7.20;;;4.10;;
54599;SDS011;40500;51.084;16.958;2022-12-13T12:21:57;7.30;;;4.50;;
54599;SDS011;40500;51.084;16.958;2022-12-13T12:24:44;8.40;;;5.00;;
54599;SDS011;40500;51.084;16.958;2022-12-13T12:27:24;7.10;;;4.60;;
54599;SDS011;40500;51.084;16.958;2022-12-13T12:30:11;8.10;;;4.50;;
54599;SDS011;40500;51.084;16.958;2022-12-13T12:32:55;6.80;;;4.10;;
54599;SDS011;40500;51.084;16.958;2022-12-13T12:35:38;6.60;;;3.60;;
54599;SDS011;40500;51.084;16.958;2022-12-13T12:38:36;8.10;;;4.60;;
54599;SDS011;40500;51.084;16.958;2022-12-13T12:41:34;7.90;;;5.00;;
54599;SDS011;40500;51.084;16.958;2022-12-13T12:44:15;6.10;;;3.80;;
54599;SDS011;40500;51.084;16.958;2022-12-13T12:47:08;6.90;;;3.70;;
54599;SDS011;40500;51.084;16.958;2022-12-13T12:50:13;6.20;;;3.90;;
54599;SDS011;40500;51.084;16.958;2022-12-13T12:52:56;5.00;;;3.50;;
54599;SDS011;40500;51.084;16.958;2022-12-13T12:55:40;9.40;;;4.50;;
54599;SDS011;40500;51.084;16.958;2022-12-13T12:58:24;5.10;;;3.00;;
54599;SDS011;40500;51.084;16.958;2022-12-13T13:01:10;8.60;;;4.20;;
54599;SDS011;40500;51.084;16.958;2022-12-13T13:03:52;8.50;;;4.40;;
54599;SDS011;40500;51.084;16.958;2022-12-13T13:06:29;6.60;;;4.20;;
54599;SDS011;40500;51.084;16.958;2022-12-13T13:09:03;7.30;;;4.30;;
54599;SDS011;40500;51.084;16.958;2022-12-13T13:11:36;6.40;;;4.10;;
54599;SDS011;40500;51.084;16.958;2022-12-13T13:17:43;6.20;;;4.00;;
54599;SDS011;40500;51.084;16.958;2022-12-13T13:20:16;6.30;;;3.90;;
54599;SDS011;40500;51.084;16.958;2022-12-13T13:22:50;6.10;;;4.20;;
54599;SDS011;40500;51.084;16.958;2022-12-13T13:25:42;5.60;;;4.00;;
54599;SDS011;40500;51.084;16.958;2022-12-13T13:28:41;7.50;;;3.90;;
54599;SDS011;40500;51.084;16.958;2022-12-13T13:31:12;6.50;;;3.70;;
54599;SDS011;40500;51.084;16.958;2022-12-13T13:33:44;5.60;;;3.60;;
54599;SDS011;40500;51.084;16.958;2022-12-13T13:36:45;6.50;;;3.70;;
54599;SDS011;40500;51.084;16.958;2022-12-13T13:39:34;5.90;;;3.60;;
54599;SDS011;40500;51.084;16.958;2022-12-13T13:42:24;5.20;;;2.60;;
54599;SDS011;40500;51.084;16.958;2022-12-13T13:45:00;5.90;;;3.60;;
54599;SDS011;40500;51.084;16.958;2022-12-13T13:51:03;10.60;;;3.80;;
54599;SDS011;40500;51.084;16.958;2022-12-13T13:53:53;4.40;;;2.80;;
54599;SDS011;40500;51.084;16.958;2022-12-13T13:56:51;4.50;;;3.10;;
54599;SDS011;40500;51.084;16.958;2022-12-13T14:03:02;7.30;;;3.60;;
54599;SDS011;40500;51.084;16.958;2022-12-13T14:09:09;6.50;;;4.00;;
54599;SDS011;40500;51.084;16.958;2022-12-13T14:12:14;6.70;;;3.40;;
54599;SDS011;40500;51.084;16.958;2022-12-13T14:21:28;4.40;;;3.10;;
54599;SDS011;40500;51.084;16.958;2022-12-13T14:24:23;9.70;;;4.30;;
54599;SDS011;40500;51.084;16.958;2022-12-13T14:27:18;11.30;;;6.10;;
54599;SDS011;40500;51.084;16.958;2022-12-13T14:29:56;11.20;;;6.70;;
54599;SDS011;40500;51.084;16.958;2022-12-13T14:32:49;8.60;;;5.00;;
54599;SDS011;40500;51.084;16.958;2022-12-13T14:35:21;8.20;;;5.10;;
54599;SDS011;40500;51.084;16.958;2022-12-13T14:37:58;9.40;;;5.50;;
54599;SDS011;40500;51.084;16.958;2022-12-13T14:40:30;7.30;;;5.00;;
54599;SDS011;40500;51.084;16.958;2022-12-13T14:43:19;9.50;;;5.30;;
54599;SDS011;40500;51.084;16.958;2022-12-13T14:45:53;11.50;;;5.30;;
54599;SDS011;40500;51.084;16.958;2022-12-13T14:48:25;7.90;;;4.80;;
54599;SDS011;40500;51.084;16.958;2022-12-13T14:51:01;7.80;;;4.30;;
54599;SDS011;40500;51.084;16.958;2022-12-13T14:53:33;6.60;;;4.00;;
54599;SDS011;40500;51.084;16.958;2022-12-13T14:56:08;7.00;;;4.20;;
54599;SDS011;40500;51.084;16.958;2022-12-13T14:58:56;10.30;;;5.30;;
54599;SDS011;40500;51.084;16.958;2022-12-13T15:01:29;7.90;;;4.50;;
54599;SDS011;40500;51.084;16.958;2022-12-13T15:04:17;10.00;;;5.30;;
54599;SDS011;40500;51.084;16.958;2022-12-13T15:06:54;7.20;;;4.40;;
54599;SDS011;40500;51.084;16.958;2022-12-13T15:09:35;5.50;;;4.30;;
54599;SDS011;40500;51.084;16.958;2022-12-13T15:12:08;9.50;;;5.30;;
54599;SDS011;40500;51.084;16.958;2022-12-13T15:14:57;9.80;;;5.90;;
54599;SDS011;40500;51.084;16.958;2022-12-13T15:17:30;9.00;;;5.50;;
54599;SDS011;40500;51.084;16.958;2022-12-13T15:20:21;10.10;;;6.10;;
54599;SDS011;40500;51.084;16.958;2022-12-13T15:22:57;15.60;;;7.30;;
54599;SDS011;40500;51.084;16.958;2022-12-13T15:25:33;17.80;;;8.40;;
54599;SDS011;40500;51.084;16.958;2022-12-13T15:28:05;11.70;;;6.80;;
54599;SDS011;40500;51.084;16.958;2022-12-13T15:30:48;14.20;;;8.00;;
54599;SDS011;40500;51.084;16.958;2022-12-13T15:33:21;12.40;;;6.60;;
54599;SDS011;40500;51.084;16.958;2022-12-13T15:36:05;10.60;;;5.70;;
54599;SDS011;40500;51.084;16.958;2022-12-13T15:38:43;11.50;;;5.20;;
54599;SDS011;40500;51.084;16.958;2022-12-13T15:41:19;18.30;;;7.10;;
54599;SDS011;40500;51.084;16.958;2022-12-13T15:44:00;10.80;;;6.80;;
54599;SDS011;40500;51.084;16.958;2022-12-13T15:46:34;13.50;;;6.70;;
54599;SDS011;40500;51.084;16.958;2022-12-13T15:49:11;12.00;;;6.50;;
54599;SDS011;40500;51.084;16.958;2022-12-13T15:51:54;8.30;;;5.40;;
54599;SDS011;40500;51.084;16.958;2022-12-13T15:54:28;14.60;;;7.50;;
54599;SDS011;40500;51.084;16.958;2022-12-13T15:57:00;15.10;;;6.80;;
54599;SDS011;40500;51.084;16.958;2022-12-13T15:59:40;14.80;;;7.70;;
54599;SDS011;40500;51.084;16.958;2022-12-13T16:02:15;14.10;;;7.90;;
54599;SDS011;40500;51.084;16.958;2022-12-13T16:04:54;13.20;;;6.20;;
54599;SDS011;40500;51.084;16.958;2022-12-13T16:07:41;14.10;;;6.40;;
54599;SDS011;40500;51.084;16.958;2022-12-13T16:10:16;12.70;;;6.90;;
54599;SDS011;40500;51.084;16.958;2022-12-13T16:12:48;21.40;;;7.80;;
54599;SDS011;40500;51.084;16.958;2022-12-13T16:15:27;13.10;;;5.50;;
54599;SDS011;40500;51.084;16.958;2022-12-13T16:18:13;12.40;;;7.00;;
54599;SDS011;40500;51.084;16.958;2022-12-13T16:20:53;14.40;;;8.00;;
54599;SDS011;40500;51.084;16.958;2022-12-13T16:23:46;19.30;;;8.60;;
54599;SDS011;40500;51.084;16.958;2022-12-13T16:26:21;14.40;;;8.20;;
54599;SDS011;40500;51.084;16.958;2022-12-13T16:28:53;19.20;;;8.60;;
54599;SDS011;40500;51.084;16.958;2022-12-13T16:31:26;17.00;;;9.20;;
54599;SDS011;40500;51.084;16.958;2022-12-13T16:34:02;23.30;;;11.20;;
54599;SDS011;40500;51.084;16.958;2022-12-13T16:36:34;26.70;;;11.20;;
54599;SDS011;40500;51.084;16.958;2022-12-13T16:39:05;19.60;;;9.90;;
54599;SDS011;40500;51.084;16.958;2022-12-13T16:41:40;25.90;;;10.00;;
54599;SDS011;40500;51.084;16.958;2022-12-13T16:44:18;29.90;;;11.80;;
54599;SDS011;40500;51.084;16.958;2022-12-13T16:46:57;30.00;;;12.80;;
54599;SDS011;40500;51.084;16.958;2022-12-13T16:49:45;32.00;;;12.60;;
54599;SDS011;40500;51.084;16.958;2022-12-13T16:52:19;29.40;;;11.90;;
54599;SDS011;40500;51.084;16.958;2022-12-13T16:54:55;26.90;;;11.80;;